createdAt,value
2022-09-30T00:00:05.675Z,1.80
2022-09-30T00:02:33.640Z,2.10
2022-09-30T00:05:01.556Z,1.83
2022-09-30T00:07:29.479Z,1.53
2022-09-30T00:09:57.422Z,1.70
2022-09-30T00:12:27.444Z,1.40
2022-09-30T00:14:55.336Z,1.90
2022-09-30T00:17:24.682Z,1.20
2022-09-30T00:19:52.561Z,1.77
2022-09-30T00:22:20.504Z,1.37
2022-09-30T00:24:48.819Z,1.47
2022-09-30T00:27:18.434Z,1.30
2022-09-30T00:29:46.357Z,1.50
2022-09-30T00:32:14.464Z,1.63
2022-09-30T00:34:44.307Z,1.77
2022-09-30T00:37:15.293Z,1.67
2022-09-30T00:39:43.219Z,1.90
2022-09-30T00:42:14.286Z,1.63
2022-09-30T00:44:46.745Z,1.93
2022-09-30T00:47:23.457Z,1.40
2022-09-30T00:49:53.179Z,1.90
2022-09-30T00:52:21.192Z,1.73
2022-09-30T00:54:49.104Z,1.63
2022-09-30T00:57:17.000Z,2.10
2022-09-30T00:59:47.318Z,1.60
2022-09-30T01:02:15.784Z,1.93
2022-09-30T01:04:45.206Z,2.10
2022-09-30T01:07:15.238Z,1.63
2022-09-30T01:09:44.418Z,1.87
2022-09-30T01:12:13.768Z,2.10
2022-09-30T01:14:42.018Z,1.63
2022-09-30T01:17:12.305Z,1.57
2022-09-30T01:20:03.735Z,1.63
2022-09-30T01:22:42.300Z,1.90
2022-09-30T01:25:19.277Z,1.60
2022-09-30T01:28:08.961Z,1.77
2022-09-30T01:30:49.867Z,1.37
2022-09-30T01:33:23.209Z,1.43
2022-09-30T01:36:00.436Z,1.80
2022-09-30T01:38:29.733Z,1.40
2022-09-30T01:41:02.843Z,1.60
2022-09-30T01:43:35.304Z,1.50
2022-09-30T01:46:08.563Z,1.37
2022-09-30T01:48:39.408Z,1.83
2022-09-30T01:51:09.185Z,1.40
2022-09-30T01:53:39.481Z,1.20
2022-09-30T01:56:09.716Z,1.60
2022-09-30T01:58:41.862Z,1.23
2022-09-30T02:01:15.210Z,1.47
2022-09-30T02:03:46.189Z,2.40
2022-09-30T02:06:15.608Z,1.53
2022-09-30T02:08:46.380Z,1.73
2022-09-30T02:11:15.941Z,1.30
2022-09-30T02:13:46.509Z,1.63
2022-09-30T02:16:18.086Z,1.57
2022-09-30T02:18:48.644Z,1.20
2022-09-30T02:21:20.436Z,1.50
2022-09-30T02:23:49.820Z,1.17
2022-09-30T02:26:20.250Z,1.30
2022-09-30T02:28:50.942Z,1.50
2022-09-30T02:31:24.173Z,1.60
2022-09-30T02:33:55.076Z,1.30
2022-09-30T02:36:25.622Z,1.20
2022-09-30T02:38:57.097Z,1.40
2022-09-30T02:41:27.000Z,1.23
2022-09-30T02:43:55.732Z,1.30
2022-09-30T02:46:27.523Z,1.20
2022-09-30T02:49:00.945Z,1.13
2022-09-30T02:51:33.525Z,1.20
2022-09-30T02:54:04.323Z,1.03
2022-09-30T02:56:39.473Z,1.30
2022-09-30T02:59:07.376Z,1.33
2022-09-30T03:01:42.052Z,1.20
2022-09-30T03:04:11.617Z,1.50
2022-09-30T03:06:40.090Z,1.30
2022-09-30T03:09:09.552Z,1.57
2022-09-30T03:11:37.576Z,1.50
2022-09-30T03:14:12.624Z,1.20
2022-09-30T03:16:54.334Z,1.20
2022-09-30T03:19:28.999Z,1.00
2022-09-30T03:22:04.504Z,1.30
2022-09-30T03:24:38.494Z,1.37
2022-09-30T03:27:12.730Z,1.33
2022-09-30T03:29:45.413Z,1.10
2022-09-30T03:32:21.525Z,1.20
2022-09-30T03:34:57.981Z,1.20
2022-09-30T03:37:30.333Z,1.53
2022-09-30T03:40:00.539Z,1.73
2022-09-30T03:42:30.378Z,1.60
2022-09-30T03:45:02.675Z,2.17
2022-09-30T03:47:33.001Z,1.80
2022-09-30T03:50:02.291Z,1.73
2022-09-30T03:52:33.063Z,1.80
2022-09-30T03:55:01.867Z,1.80
2022-09-30T03:57:30.334Z,1.70
2022-09-30T03:59:58.386Z,1.60
2022-09-30T04:02:26.591Z,1.50
2022-09-30T04:04:56.611Z,1.37
2022-09-30T04:07:24.552Z,1.63
2022-09-30T04:09:52.470Z,1.60
2022-09-30T04:12:20.430Z,2.20
2022-09-30T04:14:48.332Z,1.93
2022-09-30T04:17:16.243Z,2.30
2022-09-30T04:19:44.187Z,2.00
2022-09-30T04:22:13.567Z,2.10
2022-09-30T04:24:41.461Z,1.60
2022-09-30T04:27:09.390Z,2.13
2022-09-30T04:29:37.285Z,1.57
2022-09-30T04:32:05.245Z,1.77
2022-09-30T04:34:33.144Z,2.33
2022-09-30T04:37:01.118Z,1.87
2022-09-30T04:39:30.687Z,2.30
2022-09-30T04:41:59.309Z,2.00
2022-09-30T04:44:27.585Z,1.83
2022-09-30T04:46:57.352Z,1.80
2022-09-30T04:49:25.356Z,2.40
2022-09-30T04:51:53.254Z,1.90
2022-09-30T04:54:21.147Z,2.07
2022-09-30T04:56:50.512Z,1.63
2022-09-30T04:59:18.512Z,1.97
2022-09-30T05:01:46.595Z,2.23
2022-09-30T05:04:16.453Z,2.20
2022-09-30T05:06:44.334Z,1.87
2022-09-30T05:09:12.270Z,1.97
2022-09-30T05:11:42.546Z,2.00
2022-09-30T05:14:11.852Z,1.97
2022-09-30T05:16:39.766Z,2.10
2022-09-30T05:19:07.821Z,2.63
2022-09-30T05:21:35.753Z,2.23
2022-09-30T05:24:03.668Z,2.43
2022-09-30T05:26:31.611Z,2.47
2022-09-30T05:28:59.583Z,2.70
2022-09-30T05:31:28.948Z,2.40
2022-09-30T05:33:58.195Z,2.73
2022-09-30T05:36:26.396Z,2.50
2022-09-30T05:38:54.525Z,2.57
2022-09-30T05:41:22.804Z,3.67
2022-09-30T05:43:50.737Z,2.93
2022-09-30T05:46:19.082Z,3.10
2022-09-30T05:48:48.433Z,3.33
2022-09-30T05:51:16.322Z,3.10
2022-09-30T05:53:44.988Z,3.83
2022-09-30T05:56:13.180Z,3.70
2022-09-30T05:58:42.291Z,4.13
2022-09-30T06:01:13.770Z,3.57
2022-09-30T06:03:42.396Z,3.97
2022-09-30T06:06:12.026Z,4.23
2022-09-30T06:08:40.538Z,4.50
2022-09-30T06:11:13.250Z,3.83
2022-09-30T06:13:41.373Z,4.57
2022-09-30T06:16:09.584Z,4.20
2022-09-30T06:18:39.336Z,4.43
2022-09-30T06:21:07.284Z,4.27
2022-09-30T06:23:36.837Z,7.70
2022-09-30T06:26:05.530Z,4.93
2022-09-30T06:28:35.609Z,3.70
2022-09-30T06:31:03.594Z,3.83
2022-09-30T06:33:32.124Z,3.97
2022-09-30T06:36:04.439Z,4.17
2022-09-30T06:38:32.563Z,4.30
2022-09-30T06:41:02.233Z,3.70
2022-09-30T06:43:35.630Z,3.57
2022-09-30T06:46:15.398Z,3.47
2022-09-30T06:48:46.832Z,3.63
2022-09-30T06:51:14.770Z,4.03
2022-09-30T06:53:43.399Z,3.30
2022-09-30T06:56:12.986Z,3.10
2022-09-30T06:58:41.497Z,3.10
2022-09-30T07:01:09.508Z,3.87
2022-09-30T07:03:37.667Z,3.50
2022-09-30T07:06:07.081Z,2.83
2022-09-30T07:08:35.888Z,3.20
2022-09-30T07:11:04.891Z,3.83
2022-09-30T07:13:34.409Z,3.37
2022-09-30T07:16:02.556Z,3.30
2022-09-30T07:18:30.519Z,3.43
2022-09-30T07:20:58.567Z,2.77
2022-09-30T07:23:27.425Z,2.70
2022-09-30T07:25:56.955Z,3.37
2022-09-30T07:28:28.104Z,3.13
2022-09-30T07:31:19.877Z,2.27
2022-09-30T07:33:46.097Z,2.77
2022-09-30T07:36:18.686Z,2.60
2022-09-30T07:38:47.793Z,2.90
2022-09-30T07:41:17.046Z,2.83
2022-09-30T07:43:45.558Z,2.87
2022-09-30T07:46:16.674Z,2.87
2022-09-30T07:48:48.011Z,2.83
2022-09-30T07:51:17.084Z,2.40
2022-09-30T07:53:46.092Z,2.47
2022-09-30T07:56:14.419Z,2.80
2022-09-30T07:58:42.623Z,2.60
2022-09-30T08:01:10.916Z,2.50
2022-09-30T08:03:41.930Z,2.30
2022-09-30T08:06:10.968Z,2.97
2022-09-30T08:08:39.435Z,2.77
2022-09-30T08:11:07.654Z,2.50
2022-09-30T08:13:35.569Z,2.00
2022-09-30T08:16:03.573Z,2.03
2022-09-30T08:18:31.465Z,2.37
2022-09-30T08:21:03.313Z,1.37
2022-09-30T08:23:31.393Z,1.67
2022-09-30T08:26:02.989Z,1.50
2022-09-30T08:28:32.144Z,1.30
2022-09-30T08:31:06.932Z,1.40
2022-09-30T08:33:34.861Z,1.77
2022-09-30T08:36:04.933Z,1.80
2022-09-30T08:38:32.892Z,1.90
2022-09-30T08:41:07.000Z,1.70
2022-09-30T08:43:39.989Z,1.67
2022-09-30T08:46:10.389Z,1.77
2022-09-30T08:48:41.876Z,1.60
2022-09-30T08:51:17.338Z,2.07
2022-09-30T08:53:46.970Z,1.77
2022-09-30T08:56:21.240Z,2.10
2022-09-30T08:58:50.921Z,1.73
2022-09-30T09:01:21.125Z,1.90
2022-09-30T09:03:49.179Z,1.60
2022-09-30T09:06:22.337Z,1.60
2022-09-30T09:09:05.923Z,1.93
2022-09-30T09:11:43.348Z,1.67
2022-09-30T09:14:22.249Z,1.70
2022-09-30T09:16:56.264Z,1.80
2022-09-30T09:19:26.332Z,2.10
2022-09-30T09:21:57.411Z,1.80
2022-09-30T09:24:26.285Z,1.60
2022-09-30T09:26:54.673Z,1.53
2022-09-30T09:29:40.895Z,1.90
2022-09-30T09:32:14.037Z,2.37
2022-09-30T09:34:42.990Z,1.67
2022-09-30T09:37:16.107Z,1.83
2022-09-30T09:39:50.516Z,2.00
2022-09-30T09:42:28.088Z,1.97
2022-09-30T09:45:00.311Z,1.67
2022-09-30T09:47:28.363Z,1.40
2022-09-30T09:49:57.948Z,1.60
2022-09-30T09:52:50.202Z,1.80
2022-09-30T09:55:22.316Z,1.80
2022-09-30T09:58:05.639Z,1.73
2022-09-30T10:01:06.329Z,2.77
2022-09-30T10:03:38.263Z,1.77
2022-09-30T10:06:07.784Z,1.80
2022-09-30T10:08:36.945Z,1.40
2022-09-30T10:11:07.489Z,1.50
2022-09-30T10:13:43.086Z,1.90
2022-09-30T10:16:27.119Z,1.40
2022-09-30T10:18:55.385Z,1.80
2022-09-30T10:21:24.145Z,2.80
2022-09-30T10:23:52.113Z,1.60
2022-09-30T10:26:22.102Z,1.80
2022-09-30T10:28:51.220Z,1.70
2022-09-30T10:31:24.264Z,1.73
2022-09-30T10:33:56.112Z,1.40
2022-09-30T10:36:24.275Z,1.50
2022-09-30T10:39:01.299Z,1.80
2022-09-30T10:41:34.362Z,1.47
2022-09-30T10:44:03.813Z,1.40
2022-09-30T10:46:32.871Z,1.50
2022-09-30T10:49:01.611Z,1.73
2022-09-30T10:51:31.431Z,1.50
2022-09-30T10:53:59.372Z,1.20
2022-09-30T10:56:38.050Z,1.30
2022-09-30T10:59:08.243Z,1.43
2022-09-30T11:01:37.939Z,1.30
2022-09-30T11:04:07.900Z,1.50
2022-09-30T11:06:41.445Z,1.33
2022-09-30T11:09:12.582Z,1.23
2022-09-30T11:11:45.136Z,1.17
2022-09-30T11:14:22.068Z,1.20
2022-09-30T11:16:54.146Z,1.20
2022-09-30T11:19:24.974Z,1.80
2022-09-30T11:21:56.652Z,1.70
2022-09-30T11:24:29.814Z,1.40
2022-09-30T11:27:04.182Z,1.40
2022-09-30T11:29:38.175Z,1.30
2022-09-30T11:32:10.175Z,1.33
2022-09-30T11:34:44.689Z,1.40
2022-09-30T11:37:18.364Z,1.40
2022-09-30T11:39:52.594Z,1.20
2022-09-30T11:42:24.860Z,1.00
2022-09-30T11:44:56.788Z,1.07
2022-09-30T11:47:30.452Z,1.20
2022-09-30T11:50:05.014Z,1.20
2022-09-30T11:52:36.716Z,1.00
2022-09-30T11:55:15.335Z,1.43
2022-09-30T11:57:50.400Z,1.30
2022-09-30T12:00:21.774Z,0.97
2022-09-30T12:02:51.697Z,1.03
2022-09-30T12:05:24.795Z,1.20
2022-09-30T12:07:54.747Z,1.00
2022-09-30T12:10:24.924Z,1.13
2022-09-30T12:12:55.740Z,0.90
2022-09-30T12:15:26.440Z,1.17
2022-09-30T12:17:59.219Z,1.13
2022-09-30T12:20:29.000Z,0.80
2022-09-30T12:22:59.156Z,0.83
2022-09-30T12:25:29.657Z,0.73
2022-09-30T12:28:29.413Z,0.97
2022-09-30T12:31:00.430Z,0.90
2022-09-30T12:33:34.294Z,0.83
2022-09-30T12:36:15.437Z,0.90
2022-09-30T12:39:03.904Z,1.00
2022-09-30T12:41:39.578Z,1.00
2022-09-30T12:44:17.765Z,0.80
2022-09-30T12:46:54.052Z,0.90
2022-09-30T12:49:24.249Z,0.90
2022-09-30T12:51:54.686Z,0.63
2022-09-30T12:54:23.958Z,0.80
2022-09-30T12:56:55.556Z,0.80
2022-09-30T12:59:28.521Z,0.70
2022-09-30T13:01:57.997Z,0.83
2022-09-30T13:04:34.619Z,1.10
2022-09-30T13:07:17.810Z,1.00
2022-09-30T13:09:59.301Z,0.90
2022-09-30T13:12:28.766Z,1.00
2022-09-30T13:15:15.884Z,0.70
2022-09-30T13:17:46.053Z,1.03
2022-09-30T13:20:32.452Z,1.30
2022-09-30T13:23:00.367Z,0.80
2022-09-30T13:25:28.715Z,0.73
2022-09-30T13:28:29.972Z,0.70
2022-09-30T13:31:15.381Z,0.80
2022-09-30T13:33:46.094Z,0.70
2022-09-30T13:36:26.316Z,0.83
2022-09-30T13:39:09.026Z,0.80
2022-09-30T13:41:39.066Z,1.33
2022-09-30T13:44:10.466Z,0.80
2022-09-30T13:46:43.132Z,0.80
2022-09-30T13:49:15.518Z,0.80
2022-09-30T13:51:43.809Z,1.23
2022-09-30T13:54:15.425Z,0.80
2022-09-30T13:56:44.421Z,1.10
2022-09-30T13:59:21.672Z,0.97
2022-09-30T14:01:57.973Z,0.70
2022-09-30T14:04:36.853Z,1.07
2022-09-30T14:07:10.612Z,1.33
2022-09-30T14:09:53.527Z,0.97
2022-09-30T14:12:35.390Z,0.73
2022-09-30T14:15:22.820Z,1.00
2022-09-30T14:17:55.278Z,0.63
2022-09-30T14:20:30.529Z,1.13
2022-09-30T14:22:58.717Z,0.90
2022-09-30T14:25:26.905Z,0.60
2022-09-30T14:27:58.853Z,2.27
2022-09-30T14:30:27.623Z,2.43
2022-09-30T14:32:56.922Z,1.40
2022-09-30T14:35:25.858Z,0.73
2022-09-30T14:37:58.049Z,0.87
2022-09-30T14:40:27.625Z,0.83
2022-09-30T14:42:56.591Z,0.60
2022-09-30T14:45:27.554Z,0.50
2022-09-30T14:47:57.367Z,0.60
2022-09-30T14:50:26.495Z,0.90
2022-09-30T14:52:58.908Z,0.40
2022-09-30T14:55:29.059Z,0.90
2022-09-30T14:57:58.944Z,0.60
2022-09-30T15:00:29.706Z,0.67
2022-09-30T15:02:57.873Z,0.60
2022-09-30T15:05:26.872Z,0.60
2022-09-30T15:07:56.530Z,0.73
2022-09-30T15:10:25.560Z,1.20
2022-09-30T15:12:55.421Z,0.97
2022-09-30T15:15:35.570Z,1.00
2022-09-30T15:18:18.343Z,0.90
2022-09-30T15:20:46.365Z,0.63
2022-09-30T15:23:18.188Z,0.60
2022-09-30T15:25:46.183Z,0.80
2022-09-30T15:28:14.459Z,0.90
2022-09-30T15:30:43.653Z,0.60
2022-09-30T15:33:17.006Z,0.63
2022-09-30T15:35:45.390Z,0.67
2022-09-30T15:38:20.842Z,0.87
2022-09-30T15:40:50.820Z,0.93
2022-09-30T15:43:33.060Z,0.80
2022-09-30T15:46:16.843Z,0.70
2022-09-30T15:48:45.521Z,0.90
2022-09-30T15:51:31.460Z,0.80
2022-09-30T15:54:01.949Z,0.77
2022-09-30T15:56:35.848Z,0.80
2022-09-30T15:59:05.802Z,0.80
2022-09-30T16:01:35.654Z,0.83
2022-09-30T16:04:05.642Z,0.53
2022-09-30T16:06:36.121Z,0.93
2022-09-30T16:09:08.740Z,0.80
2022-09-30T16:11:41.192Z,1.10
2022-09-30T16:14:10.342Z,0.90
2022-09-30T16:16:39.340Z,0.70
2022-09-30T16:19:07.649Z,0.77
2022-09-30T16:21:44.462Z,0.90
2022-09-30T16:24:32.387Z,0.80
2022-09-30T16:27:17.017Z,1.17
2022-09-30T16:29:47.102Z,0.70
2022-09-30T16:32:15.406Z,0.70
2022-09-30T16:34:43.526Z,0.90
2022-09-30T16:37:12.802Z,0.70
2022-09-30T16:39:41.232Z,1.03
2022-09-30T16:42:14.027Z,1.03
2022-09-30T16:44:42.364Z,1.13
2022-09-30T16:47:13.065Z,1.07
2022-09-30T16:49:42.935Z,0.90
2022-09-30T16:52:11.721Z,1.50
2022-09-30T16:54:39.686Z,1.03
2022-09-30T16:57:07.724Z,0.87
2022-09-30T16:59:37.118Z,1.07
2022-09-30T17:02:05.747Z,1.00
2022-09-30T17:04:38.757Z,1.30
2022-09-30T17:07:06.835Z,0.70
2022-09-30T17:09:35.249Z,1.10
2022-09-30T17:12:03.258Z,1.17
2022-09-30T17:14:31.266Z,0.97
2022-09-30T17:17:00.711Z,1.23
2022-09-30T17:19:30.290Z,1.20
2022-09-30T17:21:58.294Z,1.20
2022-09-30T17:24:26.263Z,1.30
2022-09-30T17:26:54.347Z,1.23
2022-09-30T17:29:41.736Z,1.27
2022-09-30T17:32:11.842Z,1.40
2022-09-30T17:34:41.458Z,1.60
2022-09-30T17:37:09.466Z,1.40
2022-09-30T17:39:37.477Z,1.70
2022-09-30T17:42:22.965Z,1.80
2022-09-30T17:44:51.446Z,1.30
2022-09-30T17:47:21.476Z,1.53
2022-09-30T17:49:49.493Z,1.40
2022-09-30T17:52:18.294Z,1.57
2022-09-30T17:54:51.165Z,1.37
2022-09-30T17:57:20.229Z,1.57
2022-09-30T17:59:48.195Z,1.80
2022-09-30T18:02:17.848Z,1.73
2022-09-30T18:04:47.695Z,1.67
2022-09-30T18:07:15.719Z,1.93
2022-09-30T18:09:43.662Z,1.90
2022-09-30T18:12:12.402Z,1.80
2022-09-30T18:14:40.410Z,1.93
2022-09-30T18:17:08.409Z,1.67
2022-09-30T18:19:36.797Z,1.67
2022-09-30T18:22:06.182Z,2.07
2022-09-30T18:24:47.953Z,2.23
2022-09-30T18:27:16.398Z,2.10
2022-09-30T18:29:44.437Z,1.30
2022-09-30T18:32:12.483Z,1.57
2022-09-30T18:34:40.504Z,1.90
2022-09-30T18:37:09.994Z,1.60
2022-09-30T18:39:38.415Z,2.43
2022-09-30T18:42:06.406Z,1.43
2022-09-30T18:44:37.811Z,2.10
2022-09-30T18:47:05.875Z,2.17
2022-09-30T18:49:33.865Z,1.90
2022-09-30T18:52:02.098Z,1.63
2022-09-30T18:54:31.488Z,1.50
2022-09-30T18:57:00.076Z,1.53
2022-09-30T18:59:28.117Z,1.70
2022-09-30T19:01:58.105Z,1.83
2022-09-30T19:04:26.224Z,2.40
2022-09-30T19:06:54.195Z,1.60
2022-09-30T19:09:24.555Z,1.90
2022-09-30T19:11:53.953Z,1.70
2022-09-30T19:14:22.065Z,1.93
2022-09-30T19:16:51.427Z,2.23
2022-09-30T19:19:20.630Z,1.33
2022-09-30T19:21:49.469Z,1.63
2022-09-30T19:24:18.381Z,1.80
2022-09-30T19:26:48.134Z,2.03
2022-09-30T19:29:18.633Z,2.00
2022-09-30T19:31:46.778Z,1.80
2022-09-30T19:34:27.618Z,1.83
2022-09-30T19:37:00.118Z,2.00
2022-09-30T19:39:39.623Z,2.10
2022-09-30T19:42:10.420Z,2.17
2022-09-30T19:44:39.788Z,2.33
2022-09-30T19:47:07.766Z,1.90
2022-09-30T19:49:36.273Z,2.07
2022-09-30T19:52:13.844Z,2.20
2022-09-30T19:54:48.453Z,2.10
2022-09-30T19:57:16.442Z,1.90
2022-09-30T19:59:45.860Z,2.13
2022-09-30T20:02:13.889Z,2.20
2022-09-30T20:04:43.906Z,1.90
2022-09-30T20:07:11.889Z,2.50
2022-09-30T20:09:39.873Z,2.10
2022-09-30T20:12:08.307Z,2.00
2022-09-30T20:14:53.580Z,2.27
2022-09-30T20:17:23.165Z,2.40
2022-09-30T20:20:04.945Z,2.30
2022-09-30T20:22:33.123Z,2.20
2022-09-30T20:25:01.087Z,2.30
2022-09-30T20:27:29.747Z,2.23
2022-09-30T20:29:57.723Z,2.43
2022-09-30T20:32:30.923Z,2.10
2022-09-30T20:34:59.260Z,2.00
2022-09-30T20:37:27.221Z,1.60
2022-09-30T20:39:55.458Z,2.00
2022-09-30T20:42:23.555Z,1.73
2022-09-30T20:44:51.508Z,2.03
2022-09-30T20:47:19.596Z,1.90
2022-09-30T20:49:49.029Z,2.43
2022-09-30T20:52:17.011Z,2.20
2022-09-30T20:54:45.018Z,2.20
2022-09-30T20:57:13.087Z,2.03
2022-09-30T20:59:41.061Z,2.13
2022-09-30T21:02:11.129Z,1.80
2022-09-30T21:04:39.214Z,2.00
2022-09-30T21:07:08.607Z,3.73
2022-09-30T21:09:36.605Z,2.03
2022-09-30T21:12:04.713Z,2.10
2022-09-30T21:14:32.737Z,2.73
2022-09-30T21:17:00.721Z,2.80
2022-09-30T21:19:28.818Z,3.43
2022-09-30T21:21:56.998Z,3.33
2022-09-30T21:24:26.661Z,3.77
2022-09-30T21:26:56.090Z,3.13
2022-09-30T21:29:24.277Z,3.57
2022-09-30T21:31:52.284Z,4.00
2022-09-30T21:34:20.469Z,3.90
2022-09-30T21:36:49.392Z,3.33
2022-09-30T21:39:17.383Z,3.40
2022-09-30T21:41:47.824Z,3.20
2022-09-30T21:44:16.232Z,3.20
2022-09-30T21:46:48.191Z,3.27
2022-09-30T21:49:17.772Z,2.70
2022-09-30T21:51:46.006Z,2.87
2022-09-30T21:54:14.237Z,2.73
2022-09-30T21:56:42.932Z,2.97
2022-09-30T21:59:12.940Z,3.70
2022-09-30T22:01:41.018Z,3.20
2022-09-30T22:04:09.339Z,3.07
2022-09-30T22:06:37.350Z,3.20
2022-09-30T22:09:05.569Z,2.83
2022-09-30T22:11:33.819Z,2.90
2022-09-30T22:14:02.025Z,3.37
2022-09-30T22:16:35.108Z,3.03
2022-09-30T22:19:05.450Z,2.97
2022-09-30T22:21:34.609Z,2.93
2022-09-30T22:24:03.554Z,3.17
2022-09-30T22:26:32.007Z,3.17
2022-09-30T22:29:00.751Z,2.83
2022-09-30T22:31:30.082Z,3.40
2022-09-30T22:34:18.199Z,2.80
2022-09-30T22:37:03.728Z,4.20
2022-09-30T22:39:32.230Z,2.80
2022-09-30T22:42:00.362Z,2.43
2022-09-30T22:44:29.547Z,2.80
2022-09-30T22:46:59.692Z,3.30
2022-09-30T22:49:30.678Z,3.07
2022-09-30T22:51:58.676Z,3.20
2022-09-30T22:54:28.591Z,3.07
2022-09-30T22:56:59.425Z,2.67
2022-09-30T22:59:28.142Z,3.37
2022-09-30T23:01:59.424Z,2.57
2022-09-30T23:04:32.786Z,3.07
2022-09-30T23:07:00.774Z,2.63
2022-09-30T23:09:28.987Z,2.63
2022-09-30T23:11:57.345Z,2.90
2022-09-30T23:14:25.557Z,2.50
2022-09-30T23:16:53.661Z,2.87
2022-09-30T23:19:22.143Z,2.77
2022-09-30T23:21:51.569Z,2.67
2022-09-30T23:24:19.547Z,2.80
2022-09-30T23:26:48.079Z,2.87
2022-09-30T23:29:16.236Z,2.90
2022-09-30T23:31:45.105Z,2.70
2022-09-30T23:34:13.369Z,2.80
2022-09-30T23:36:41.678Z,2.83
2022-09-30T23:39:14.687Z,2.77
2022-09-30T23:41:43.647Z,3.00
2022-09-30T23:44:11.600Z,2.73
2022-09-30T23:46:59.614Z,3.03
2022-09-30T23:49:27.947Z,2.73
2022-09-30T23:51:55.917Z,3.03
2022-09-30T23:54:25.373Z,2.70
2022-09-30T23:56:53.391Z,3.13
2022-09-30T23:59:21.360Z,3.40
